sensor_id;sensor_type;location;lat;lon;timestamp;P1;durP1;ratioP1;P2;durP2;ratioP2
23682;SDS011;24897;53.514;10.482;2023-08-01T00:00:31;48.60;;;37.97;;
23682;SDS011;24897;53.514;10.482;2023-08-01T00:03:15;64.40;;;51.87;;
23682;SDS011;24897;53.514;10.482;2023-08-01T00:06:00;66.50;;;54.60;;
23682;SDS011;24897;53.514;10.482;2023-08-01T00:08:44;54.70;;;41.20;;
23682;SDS011;24897;53.514;10.482;2023-08-01T00:11:28;51.37;;;39.70;;
23682;SDS011;24897;53.514;10.482;2023-08-01T00:14:12;48.67;;;34.67;;
23682;SDS011;24897;53.514;10.482;2023-08-01T00:16:56;47.90;;;36.00;;
23682;SDS011;24897;53.514;10.482;2023-08-01T00:19:40;46.87;;;35.87;;
23682;SDS011;24897;53.514;10.482;2023-08-01T00:22:24;47.00;;;36.73;;
23682;SDS011;24897;53.514;10.482;2023-08-01T00:25:09;47.83;;;37.50;;
23682;SDS011;24897;53.514;10.482;2023-08-01T00:27:53;49.10;;;34.87;;
23682;SDS011;24897;53.514;10.482;2023-08-01T00:30:37;44.50;;;32.80;;
23682;SDS011;24897;53.514;10.482;2023-08-01T00:33:21;46.00;;;35.70;;
23682;SDS011;24897;53.514;10.482;2023-08-01T00:36:05;42.60;;;32.13;;
23682;SDS011;24897;53.514;10.482;2023-08-01T00:38:54;38.30;;;29.63;;
23682;SDS011;24897;53.514;10.482;2023-08-01T00:41:39;40.97;;;30.70;;
23682;SDS011;24897;53.514;10.482;2023-08-01T00:44:23;37.07;;;28.37;;
23682;SDS011;24897;53.514;10.482;2023-08-01T00:47:07;37.77;;;28.57;;
23682;SDS011;24897;53.514;10.482;2023-08-01T00:49:53;38.17;;;28.40;;
23682;SDS011;24897;53.514;10.482;2023-08-01T00:52:37;37.03;;;28.13;;
23682;SDS011;24897;53.514;10.482;2023-08-01T00:55:21;36.60;;;28.27;;
23682;SDS011;24897;53.514;10.482;2023-08-01T00:58:06;36.27;;;29.03;;
23682;SDS011;24897;53.514;10.482;2023-08-01T01:00:51;36.20;;;28.70;;
23682;SDS011;24897;53.514;10.482;2023-08-01T01:03:35;35.30;;;28.60;;
23682;SDS011;24897;53.514;10.482;2023-08-01T01:06:23;34.93;;;28.47;;
23682;SDS011;24897;53.514;10.482;2023-08-01T01:09:18;36.17;;;28.97;;
23682;SDS011;24897;53.514;10.482;2023-08-01T01:12:02;38.00;;;29.90;;
23682;SDS011;24897;53.514;10.482;2023-08-01T01:14:48;35.57;;;28.70;;
23682;SDS011;24897;53.514;10.482;2023-08-01T01:17:32;36.47;;;28.53;;
23682;SDS011;24897;53.514;10.482;2023-08-01T01:20:19;35.87;;;28.70;;
23682;SDS011;24897;53.514;10.482;2023-08-01T01:23:06;34.83;;;27.37;;
23682;SDS011;24897;53.514;10.482;2023-08-01T01:25:52;36.07;;;28.07;;
23682;SDS011;24897;53.514;10.482;2023-08-01T01:28:37;36.50;;;28.70;;
23682;SDS011;24897;53.514;10.482;2023-08-01T01:31:22;37.30;;;28.57;;
23682;SDS011;24897;53.514;10.482;2023-08-01T01:34:07;35.37;;;28.20;;
23682;SDS011;24897;53.514;10.482;2023-08-01T01:36:52;36.93;;;28.50;;
23682;SDS011;24897;53.514;10.482;2023-08-01T01:39:36;34.03;;;27.20;;
23682;SDS011;24897;53.514;10.482;2023-08-01T01:42:20;36.23;;;28.80;;
23682;SDS011;24897;53.514;10.482;2023-08-01T01:45:04;40.53;;;28.40;;
23682;SDS011;24897;53.514;10.482;2023-08-01T01:47:49;39.20;;;29.63;;
23682;SDS011;24897;53.514;10.482;2023-08-01T01:50:33;36.57;;;28.13;;
23682;SDS011;24897;53.514;10.482;2023-08-01T01:53:17;37.57;;;28.50;;
23682;SDS011;24897;53.514;10.482;2023-08-01T01:56:01;39.03;;;28.97;;
23682;SDS011;24897;53.514;10.482;2023-08-01T01:58:46;38.67;;;29.03;;
23682;SDS011;24897;53.514;10.482;2023-08-01T02:01:30;34.97;;;27.93;;
23682;SDS011;24897;53.514;10.482;2023-08-01T02:04:14;41.67;;;30.53;;
23682;SDS011;24897;53.514;10.482;2023-08-01T02:06:58;40.13;;;30.33;;
23682;SDS011;24897;53.514;10.482;2023-08-01T02:09:42;41.93;;;31.70;;
23682;SDS011;24897;53.514;10.482;2023-08-01T02:12:26;37.17;;;29.17;;
23682;SDS011;24897;53.514;10.482;2023-08-01T02:15:11;40.23;;;31.63;;
23682;SDS011;24897;53.514;10.482;2023-08-01T02:17:56;39.43;;;30.03;;
23682;SDS011;24897;53.514;10.482;2023-08-01T02:20:41;37.63;;;29.23;;
23682;SDS011;24897;53.514;10.482;2023-08-01T02:23:25;39.43;;;29.90;;
23682;SDS011;24897;53.514;10.482;2023-08-01T02:26:09;43.40;;;30.27;;
23682;SDS011;24897;53.514;10.482;2023-08-01T02:28:53;43.13;;;31.17;;
23682;SDS011;24897;53.514;10.482;2023-08-01T02:31:37;38.93;;;31.17;;
23682;SDS011;24897;53.514;10.482;2023-08-01T02:34:21;44.80;;;31.27;;
23682;SDS011;24897;53.514;10.482;2023-08-01T02:37:05;38.37;;;30.57;;
23682;SDS011;24897;53.514;10.482;2023-08-01T02:39:49;42.30;;;31.67;;
23682;SDS011;24897;53.514;10.482;2023-08-01T02:42:33;42.73;;;32.33;;
23682;SDS011;24897;53.514;10.482;2023-08-01T02:45:17;45.57;;;32.80;;
23682;SDS011;24897;53.514;10.482;2023-08-01T02:48:02;43.23;;;32.67;;
23682;SDS011;24897;53.514;10.482;2023-08-01T02:50:46;41.00;;;32.20;;
23682;SDS011;24897;53.514;10.482;2023-08-01T02:53:30;41.37;;;32.20;;
23682;SDS011;24897;53.514;10.482;2023-08-01T02:56:14;41.53;;;32.20;;
23682;SDS011;24897;53.514;10.482;2023-08-01T02:58:58;44.17;;;34.17;;
23682;SDS011;24897;53.514;10.482;2023-08-01T03:01:42;47.07;;;34.47;;
23682;SDS011;24897;53.514;10.482;2023-08-01T03:04:27;43.60;;;34.37;;
23682;SDS011;24897;53.514;10.482;2023-08-01T03:07:11;45.83;;;36.77;;
23682;SDS011;24897;53.514;10.482;2023-08-01T03:09:55;48.33;;;35.93;;
23682;SDS011;24897;53.514;10.482;2023-08-01T03:12:39;51.00;;;37.70;;
23682;SDS011;24897;53.514;10.482;2023-08-01T03:15:23;47.17;;;37.40;;
23682;SDS011;24897;53.514;10.482;2023-08-01T03:18:08;48.83;;;37.43;;
23682;SDS011;24897;53.514;10.482;2023-08-01T03:20:52;48.37;;;37.87;;
23682;SDS011;24897;53.514;10.482;2023-08-01T03:23:36;42.23;;;34.50;;
23682;SDS011;24897;53.514;10.482;2023-08-01T03:26:20;48.93;;;38.13;;
23682;SDS011;24897;53.514;10.482;2023-08-01T03:29:04;45.73;;;36.90;;
23682;SDS011;24897;53.514;10.482;2023-08-01T03:31:48;52.10;;;39.03;;
23682;SDS011;24897;53.514;10.482;2023-08-01T03:34:32;53.73;;;39.57;;
23682;SDS011;24897;53.514;10.482;2023-08-01T03:37:17;51.30;;;39.70;;
23682;SDS011;24897;53.514;10.482;2023-08-01T03:40:01;50.00;;;38.63;;
23682;SDS011;24897;53.514;10.482;2023-08-01T03:42:45;49.17;;;38.33;;
23682;SDS011;24897;53.514;10.482;2023-08-01T03:45:29;50.20;;;38.80;;
23682;SDS011;24897;53.514;10.482;2023-08-01T03:48:14;45.13;;;36.27;;
23682;SDS011;24897;53.514;10.482;2023-08-01T03:50:57;47.73;;;37.37;;
23682;SDS011;24897;53.514;10.482;2023-08-01T03:53:41;49.07;;;38.73;;
23682;SDS011;24897;53.514;10.482;2023-08-01T03:56:25;45.23;;;37.17;;
23682;SDS011;24897;53.514;10.482;2023-08-01T03:59:11;48.83;;;37.37;;
23682;SDS011;24897;53.514;10.482;2023-08-01T04:01:56;48.10;;;37.93;;
23682;SDS011;24897;53.514;10.482;2023-08-01T04:04:41;50.37;;;38.93;;
23682;SDS011;24897;53.514;10.482;2023-08-01T04:07:25;49.13;;;39.10;;
23682;SDS011;24897;53.514;10.482;2023-08-01T04:10:09;45.43;;;38.47;;
23682;SDS011;24897;53.514;10.482;2023-08-01T04:12:53;52.60;;;39.10;;
23682;SDS011;24897;53.514;10.482;2023-08-01T04:15:37;45.07;;;36.70;;
23682;SDS011;24897;53.514;10.482;2023-08-01T04:18:22;56.80;;;39.77;;
23682;SDS011;24897;53.514;10.482;2023-08-01T04:21:06;50.93;;;40.97;;
23682;SDS011;24897;53.514;10.482;2023-08-01T04:23:51;47.10;;;38.63;;
23682;SDS011;24897;53.514;10.482;2023-08-01T04:26:35;45.30;;;37.57;;
23682;SDS011;24897;53.514;10.482;2023-08-01T04:29:20;45.80;;;37.40;;
23682;SDS011;24897;53.514;10.482;2023-08-01T04:32:04;47.00;;;36.87;;
23682;SDS011;24897;53.514;10.482;2023-08-01T04:34:49;51.47;;;40.97;;
23682;SDS011;24897;53.514;10.482;2023-08-01T04:37:33;51.57;;;38.00;;
23682;SDS011;24897;53.514;10.482;2023-08-01T04:40:17;50.13;;;38.83;;
23682;SDS011;24897;53.514;10.482;2023-08-01T04:43:01;48.03;;;37.30;;
23682;SDS011;24897;53.514;10.482;2023-08-01T04:45:45;47.43;;;37.20;;
23682;SDS011;24897;53.514;10.482;2023-08-01T04:48:30;49.03;;;38.50;;
23682;SDS011;24897;53.514;10.482;2023-08-01T04:51:14;47.37;;;37.90;;
23682;SDS011;24897;53.514;10.482;2023-08-01T04:53:58;44.60;;;36.77;;
23682;SDS011;24897;53.514;10.482;2023-08-01T04:56:42;45.20;;;36.20;;
23682;SDS011;24897;53.514;10.482;2023-08-01T04:59:26;45.70;;;35.90;;
23682;SDS011;24897;53.514;10.482;2023-08-01T05:02:10;49.07;;;38.30;;
23682;SDS011;24897;53.514;10.482;2023-08-01T05:04:54;46.03;;;37.40;;
23682;SDS011;24897;53.514;10.482;2023-08-01T05:07:38;44.13;;;34.97;;
23682;SDS011;24897;53.514;10.482;2023-08-01T05:10:22;44.50;;;37.03;;
23682;SDS011;24897;53.514;10.482;2023-08-01T05:13:06;44.93;;;35.77;;
23682;SDS011;24897;53.514;10.482;2023-08-01T05:15:50;43.90;;;34.90;;
23682;SDS011;24897;53.514;10.482;2023-08-01T05:18:34;44.87;;;36.60;;
23682;SDS011;24897;53.514;10.482;2023-08-01T05:21:18;44.50;;;35.83;;
23682;SDS011;24897;53.514;10.482;2023-08-01T05:24:02;46.67;;;36.43;;
23682;SDS011;24897;53.514;10.482;2023-08-01T05:26:47;43.97;;;36.73;;
23682;SDS011;24897;53.514;10.482;2023-08-01T05:29:31;50.17;;;37.63;;
23682;SDS011;24897;53.514;10.482;2023-08-01T05:32:15;44.27;;;37.47;;
23682;SDS011;24897;53.514;10.482;2023-08-01T05:34:59;45.83;;;37.80;;
23682;SDS011;24897;53.514;10.482;2023-08-01T05:37:43;44.03;;;36.90;;
23682;SDS011;24897;53.514;10.482;2023-08-01T05:40:27;46.27;;;37.97;;
23682;SDS011;24897;53.514;10.482;2023-08-01T05:43:11;44.73;;;35.97;;
23682;SDS011;24897;53.514;10.482;2023-08-01T05:45:55;46.17;;;35.37;;
23682;SDS011;24897;53.514;10.482;2023-08-01T05:48:39;44.03;;;35.77;;
23682;SDS011;24897;53.514;10.482;2023-08-01T05:51:23;44.33;;;36.73;;
23682;SDS011;24897;53.514;10.482;2023-08-01T05:54:07;43.43;;;36.07;;
23682;SDS011;24897;53.514;10.482;2023-08-01T05:56:51;49.23;;;36.63;;
23682;SDS011;24897;53.514;10.482;2023-08-01T05:59:35;46.27;;;37.47;;
23682;SDS011;24897;53.514;10.482;2023-08-01T06:02:20;47.17;;;38.00;;
23682;SDS011;24897;53.514;10.482;2023-08-01T06:05:04;45.40;;;37.07;;
23682;SDS011;24897;53.514;10.482;2023-08-01T06:07:48;48.20;;;37.63;;
23682;SDS011;24897;53.514;10.482;2023-08-01T06:10:33;45.70;;;36.97;;
23682;SDS011;24897;53.514;10.482;2023-08-01T06:13:18;45.20;;;37.10;;
23682;SDS011;24897;53.514;10.482;2023-08-01T06:16:03;52.83;;;37.97;;
23682;SDS011;24897;53.514;10.482;2023-08-01T06:18:47;41.27;;;35.23;;
23682;SDS011;24897;53.514;10.482;2023-08-01T06:21:31;47.90;;;37.83;;
23682;SDS011;24897;53.514;10.482;2023-08-01T06:24:16;46.67;;;37.63;;
23682;SDS011;24897;53.514;10.482;2023-08-01T06:27:00;41.57;;;34.73;;
23682;SDS011;24897;53.514;10.482;2023-08-01T06:29:44;41.77;;;34.07;;
23682;SDS011;24897;53.514;10.482;2023-08-01T06:32:28;44.83;;;34.50;;
23682;SDS011;24897;53.514;10.482;2023-08-01T06:35:12;34.90;;;31.07;;
23682;SDS011;24897;53.514;10.482;2023-08-01T06:37:56;38.00;;;32.10;;
23682;SDS011;24897;53.514;10.482;2023-08-01T06:40:40;37.03;;;31.73;;
23682;SDS011;24897;53.514;10.482;2023-08-01T06:43:24;39.73;;;33.73;;
23682;SDS011;24897;53.514;10.482;2023-08-01T06:46:08;38.50;;;32.80;;
23682;SDS011;24897;53.514;10.482;2023-08-01T06:48:53;37.57;;;32.80;;
23682;SDS011;24897;53.514;10.482;2023-08-01T06:51:37;41.07;;;32.97;;
23682;SDS011;24897;53.514;10.482;2023-08-01T06:54:21;39.73;;;33.53;;
23682;SDS011;24897;53.514;10.482;2023-08-01T06:57:06;37.73;;;31.57;;
23682;SDS011;24897;53.514;10.482;2023-08-01T06:59:51;37.33;;;30.47;;
23682;SDS011;24897;53.514;10.482;2023-08-01T07:02:35;39.47;;;32.63;;
23682;SDS011;24897;53.514;10.482;2023-08-01T07:05:19;43.07;;;34.37;;
23682;SDS011;24897;53.514;10.482;2023-08-01T07:08:04;40.73;;;34.70;;
23682;SDS011;24897;53.514;10.482;2023-08-01T07:10:48;42.73;;;35.23;;
23682;SDS011;24897;53.514;10.482;2023-08-01T07:13:32;43.10;;;36.30;;
23682;SDS011;24897;53.514;10.482;2023-08-01T07:16:16;42.20;;;35.10;;
23682;SDS011;24897;53.514;10.482;2023-08-01T07:19:00;40.30;;;34.87;;
23682;SDS011;24897;53.514;10.482;2023-08-01T07:21:44;37.50;;;32.57;;
23682;SDS011;24897;53.514;10.482;2023-08-01T07:24:31;38.10;;;32.10;;
23682;SDS011;24897;53.514;10.482;2023-08-01T07:27:15;43.27;;;34.03;;
23682;SDS011;24897;53.514;10.482;2023-08-01T07:29:59;38.53;;;32.83;;
23682;SDS011;24897;53.514;10.482;2023-08-01T07:32:43;37.03;;;30.87;;
23682;SDS011;24897;53.514;10.482;2023-08-01T07:35:27;36.23;;;31.03;;
23682;SDS011;24897;53.514;10.482;2023-08-01T07:38:12;35.17;;;29.73;;
23682;SDS011;24897;53.514;10.482;2023-08-01T07:40:56;33.63;;;29.83;;
23682;SDS011;24897;53.514;10.482;2023-08-01T07:43:41;35.00;;;30.27;;
23682;SDS011;24897;53.514;10.482;2023-08-01T07:46:25;36.70;;;30.47;;
23682;SDS011;24897;53.514;10.482;2023-08-01T07:49:09;33.60;;;28.80;;
23682;SDS011;24897;53.514;10.482;2023-08-01T07:51:53;31.70;;;27.40;;
23682;SDS011;24897;53.514;10.482;2023-08-01T07:54:37;30.03;;;26.03;;
23682;SDS011;24897;53.514;10.482;2023-08-01T07:57:21;32.57;;;26.67;;
23682;SDS011;24897;53.514;10.482;2023-08-01T08:00:05;30.43;;;26.63;;
23682;SDS011;24897;53.514;10.482;2023-08-01T08:02:50;28.57;;;25.50;;
23682;SDS011;24897;53.514;10.482;2023-08-01T08:05:34;30.20;;;26.53;;
23682;SDS011;24897;53.514;10.482;2023-08-01T08:08:21;29.07;;;25.93;;
23682;SDS011;24897;53.514;10.482;2023-08-01T08:11:05;30.70;;;25.50;;
23682;SDS011;24897;53.514;10.482;2023-08-01T08:13:49;31.43;;;24.27;;
23682;SDS011;24897;53.514;10.482;2023-08-01T08:16:34;26.63;;;23.77;;
23682;SDS011;24897;53.514;10.482;2023-08-01T08:19:18;29.27;;;25.07;;
23682;SDS011;24897;53.514;10.482;2023-08-01T08:22:02;27.27;;;24.47;;
23682;SDS011;24897;53.514;10.482;2023-08-01T08:24:47;27.67;;;24.80;;
23682;SDS011;24897;53.514;10.482;2023-08-01T08:27:32;28.27;;;25.17;;
23682;SDS011;24897;53.514;10.482;2023-08-01T08:30:16;28.63;;;24.23;;
23682;SDS011;24897;53.514;10.482;2023-08-01T08:33:00;28.07;;;24.90;;
23682;SDS011;24897;53.514;10.482;2023-08-01T08:35:48;28.20;;;25.27;;
23682;SDS011;24897;53.514;10.482;2023-08-01T08:38:32;27.53;;;24.67;;
23682;SDS011;24897;53.514;10.482;2023-08-01T08:41:23;27.07;;;24.17;;
23682;SDS011;24897;53.514;10.482;2023-08-01T08:44:10;27.43;;;24.63;;
23682;SDS011;24897;53.514;10.482;2023-08-01T08:46:55;29.53;;;26.17;;
23682;SDS011;24897;53.514;10.482;2023-08-01T08:49:46;29.57;;;26.20;;
23682;SDS011;24897;53.514;10.482;2023-08-01T08:52:31;31.90;;;26.50;;
23682;SDS011;24897;53.514;10.482;2023-08-01T08:55:15;27.97;;;25.17;;
23682;SDS011;24897;53.514;10.482;2023-08-01T08:57:59;27.63;;;24.73;;
23682;SDS011;24897;53.514;10.482;2023-08-01T09:00:44;28.93;;;25.83;;
23682;SDS011;24897;53.514;10.482;2023-08-01T09:03:28;29.07;;;25.93;;
23682;SDS011;24897;53.514;10.482;2023-08-01T09:06:14;31.07;;;27.77;;
23682;SDS011;24897;53.514;10.482;2023-08-01T09:09:10;30.20;;;27.20;;
23682;SDS011;24897;53.514;10.482;2023-08-01T09:11:57;29.20;;;26.30;;
23682;SDS011;24897;53.514;10.482;2023-08-01T09:14:42;29.30;;;26.27;;
23682;SDS011;24897;53.514;10.482;2023-08-01T09:17:27;29.37;;;26.57;;
23682;SDS011;24897;53.514;10.482;2023-08-01T09:20:12;29.57;;;26.33;;
23682;SDS011;24897;53.514;10.482;2023-08-01T09:22:56;28.67;;;26.00;;
23682;SDS011;24897;53.514;10.482;2023-08-01T09:25:40;27.77;;;25.17;;
23682;SDS011;24897;53.514;10.482;2023-08-01T09:28:25;24.90;;;22.80;;
23682;SDS011;24897;53.514;10.482;2023-08-01T09:31:10;23.17;;;21.23;;
23682;SDS011;24897;53.514;10.482;2023-08-01T09:33:55;24.73;;;22.43;;
23682;SDS011;24897;53.514;10.482;2023-08-01T09:36:39;28.27;;;25.57;;
23682;SDS011;24897;53.514;10.482;2023-08-01T09:39:23;27.90;;;25.47;;
23682;SDS011;24897;53.514;10.482;2023-08-01T09:42:07;30.67;;;27.90;;
23682;SDS011;24897;53.514;10.482;2023-08-01T09:44:52;25.37;;;23.10;;
23682;SDS011;24897;53.514;10.482;2023-08-01T09:47:36;25.13;;;23.03;;
23682;SDS011;24897;53.514;10.482;2023-08-01T09:50:21;22.20;;;20.23;;
23682;SDS011;24897;53.514;10.482;2023-08-01T09:53:07;24.07;;;21.83;;
23682;SDS011;24897;53.514;10.482;2023-08-01T09:55:51;20.93;;;19.13;;
23682;SDS011;24897;53.514;10.482;2023-08-01T09:58:37;22.17;;;20.17;;
23682;SDS011;24897;53.514;10.482;2023-08-01T10:01:23;24.37;;;22.17;;
23682;SDS011;24897;53.514;10.482;2023-08-01T10:04:08;22.97;;;21.17;;
23682;SDS011;24897;53.514;10.482;2023-08-01T10:06:54;23.53;;;21.53;;
23682;SDS011;24897;53.514;10.482;2023-08-01T10:09:43;23.27;;;21.43;;
23682;SDS011;24897;53.514;10.482;2023-08-01T10:12:27;20.57;;;18.97;;
23682;SDS011;24897;53.514;10.482;2023-08-01T10:15:13;17.60;;;16.30;;
23682;SDS011;24897;53.514;10.482;2023-08-01T10:17:59;19.73;;;18.23;;
23682;SDS011;24897;53.514;10.482;2023-08-01T10:20:44;19.50;;;17.90;;
23682;SDS011;24897;53.514;10.482;2023-08-01T10:23:30;21.00;;;19.30;;
23682;SDS011;24897;53.514;10.482;2023-08-01T10:26:17;18.60;;;17.23;;
23682;SDS011;24897;53.514;10.482;2023-08-01T10:29:01;17.87;;;16.40;;
23682;SDS011;24897;53.514;10.482;2023-08-01T10:31:52;19.10;;;17.43;;
23682;SDS011;24897;53.514;10.482;2023-08-01T10:34:38;17.93;;;16.60;;
23682;SDS011;24897;53.514;10.482;2023-08-01T10:37:22;17.03;;;15.63;;
23682;SDS011;24897;53.514;10.482;2023-08-01T10:40:07;16.63;;;15.47;;
23682;SDS011;24897;53.514;10.482;2023-08-01T10:42:51;18.43;;;17.03;;
23682;SDS011;24897;53.514;10.482;2023-08-01T10:45:35;19.00;;;17.40;;
23682;SDS011;24897;53.514;10.482;2023-08-01T10:48:19;19.50;;;17.97;;
23682;SDS011;24897;53.514;10.482;2023-08-01T10:51:03;16.20;;;15.10;;
23682;SDS011;24897;53.514;10.482;2023-08-01T10:53:48;17.43;;;16.03;;
23682;SDS011;24897;53.514;10.482;2023-08-01T10:56:32;17.17;;;15.87;;
23682;SDS011;24897;53.514;10.482;2023-08-01T10:59:16;17.53;;;16.23;;
23682;SDS011;24897;53.514;10.482;2023-08-01T11:02:01;17.50;;;16.10;;
23682;SDS011;24897;53.514;10.482;2023-08-01T11:04:54;17.70;;;16.33;;
23682;SDS011;24897;53.514;10.482;2023-08-01T11:08:02;16.47;;;15.07;;
23682;SDS011;24897;53.514;10.482;2023-08-01T11:10:49;16.63;;;15.40;;
23682;SDS011;24897;53.514;10.482;2023-08-01T11:13:33;15.83;;;14.60;;
23682;SDS011;24897;53.514;10.482;2023-08-01T11:16:19;15.73;;;14.63;;
23682;SDS011;24897;53.514;10.482;2023-08-01T11:19:03;16.20;;;15.00;;
23682;SDS011;24897;53.514;10.482;2023-08-01T11:21:47;15.30;;;14.10;;
23682;SDS011;24897;53.514;10.482;2023-08-01T11:24:31;16.40;;;15.20;;
23682;SDS011;24897;53.514;10.482;2023-08-01T11:27:15;15.63;;;14.43;;
23682;SDS011;24897;53.514;10.482;2023-08-01T11:29:59;15.90;;;14.70;;
23682;SDS011;24897;53.514;10.482;2023-08-01T11:32:43;15.50;;;14.30;;
23682;SDS011;24897;53.514;10.482;2023-08-01T11:35:27;16.40;;;15.10;;
23682;SDS011;24897;53.514;10.482;2023-08-01T11:38:12;15.80;;;14.60;;
23682;SDS011;24897;53.514;10.482;2023-08-01T11:40:56;15.37;;;14.07;;
23682;SDS011;24897;53.514;10.482;2023-08-01T11:43:41;15.60;;;14.37;;
23682;SDS011;24897;53.514;10.482;2023-08-01T11:46:33;15.97;;;14.87;;
23682;SDS011;24897;53.514;10.482;2023-08-01T11:49:19;16.13;;;14.90;;
23682;SDS011;24897;53.514;10.482;2023-08-01T11:52:03;17.10;;;15.83;;
23682;SDS011;24897;53.514;10.482;2023-08-01T11:54:47;17.70;;;16.23;;
23682;SDS011;24897;53.514;10.482;2023-08-01T11:57:31;17.07;;;15.47;;
23682;SDS011;24897;53.514;10.482;2023-08-01T12:00:20;16.80;;;15.50;;
23682;SDS011;24897;53.514;10.482;2023-08-01T12:03:09;17.30;;;16.00;;
23682;SDS011;24897;53.514;10.482;2023-08-01T12:06:03;19.53;;;18.07;;
23682;SDS011;24897;53.514;10.482;2023-08-01T12:08:50;23.30;;;21.30;;
23682;SDS011;24897;53.514;10.482;2023-08-01T12:11:35;25.20;;;22.93;;
23682;SDS011;24897;53.514;10.482;2023-08-01T12:14:20;24.97;;;22.60;;
23682;SDS011;24897;53.514;10.482;2023-08-01T12:17:04;25.23;;;22.63;;
23682;SDS011;24897;53.514;10.482;2023-08-01T12:19:48;25.07;;;22.30;;
23682;SDS011;24897;53.514;10.482;2023-08-01T12:22:33;23.50;;;21.10;;
23682;SDS011;24897;53.514;10.482;2023-08-01T12:25:17;23.60;;;21.20;;
23682;SDS011;24897;53.514;10.482;2023-08-01T12:28:01;24.30;;;21.83;;
23682;SDS011;24897;53.514;10.482;2023-08-01T12:30:46;24.63;;;22.27;;
23682;SDS011;24897;53.514;10.482;2023-08-01T12:33:30;23.97;;;21.67;;
23682;SDS011;24897;53.514;10.482;2023-08-01T12:36:14;23.47;;;21.27;;
23682;SDS011;24897;53.514;10.482;2023-08-01T12:38:59;23.07;;;20.87;;
23682;SDS011;24897;53.514;10.482;2023-08-01T12:41:43;23.60;;;21.50;;
23682;SDS011;24897;53.514;10.482;2023-08-01T12:44:27;23.07;;;21.07;;
23682;SDS011;24897;53.514;10.482;2023-08-01T12:47:11;22.97;;;20.80;;
23682;SDS011;24897;53.514;10.482;2023-08-01T12:49:55;22.63;;;20.63;;
23682;SDS011;24897;53.514;10.482;2023-08-01T12:52:39;22.63;;;20.73;;
23682;SDS011;24897;53.514;10.482;2023-08-01T12:55:23;23.07;;;21.10;;
23682;SDS011;24897;53.514;10.482;2023-08-01T12:58:07;23.33;;;21.23;;
23682;SDS011;24897;53.514;10.482;2023-08-01T13:00:52;23.67;;;21.57;;
23682;SDS011;24897;53.514;10.482;2023-08-01T13:03:36;23.60;;;21.50;;
23682;SDS011;24897;53.514;10.482;2023-08-01T13:06:20;24.07;;;21.70;;
23682;SDS011;24897;53.514;10.482;2023-08-01T13:09:04;24.33;;;21.97;;
23682;SDS011;24897;53.514;10.482;2023-08-01T13:11:48;24.50;;;22.20;;
23682;SDS011;24897;53.514;10.482;2023-08-01T13:14:32;24.37;;;22.07;;
23682;SDS011;24897;53.514;10.482;2023-08-01T13:17:17;23.87;;;21.67;;
23682;SDS011;24897;53.514;10.482;2023-08-01T13:20:01;25.13;;;22.47;;
23682;SDS011;24897;53.514;10.482;2023-08-01T13:22:45;23.20;;;21.20;;
23682;SDS011;24897;53.514;10.482;2023-08-01T13:25:31;23.17;;;21.07;;
23682;SDS011;24897;53.514;10.482;2023-08-01T13:28:15;21.77;;;20.07;;
23682;SDS011;24897;53.514;10.482;2023-08-01T13:30:59;21.40;;;19.70;;
23682;SDS011;24897;53.514;10.482;2023-08-01T13:33:43;21.23;;;19.63;;
23682;SDS011;24897;53.514;10.482;2023-08-01T13:36:27;21.07;;;19.37;;
23682;SDS011;24897;53.514;10.482;2023-08-01T13:39:11;22.50;;;20.50;;
23682;SDS011;24897;53.514;10.482;2023-08-01T13:41:55;22.83;;;20.93;;
23682;SDS011;24897;53.514;10.482;2023-08-01T13:44:40;23.63;;;21.60;;
23682;SDS011;24897;53.514;10.482;2023-08-01T13:47:24;23.10;;;21.00;;
23682;SDS011;24897;53.514;10.482;2023-08-01T13:50:08;21.97;;;20.07;;
23682;SDS011;24897;53.514;10.482;2023-08-01T13:52:52;22.07;;;20.17;;
23682;SDS011;24897;53.514;10.482;2023-08-01T13:55:36;21.40;;;19.57;;
23682;SDS011;24897;53.514;10.482;2023-08-01T13:58:21;20.17;;;18.57;;
23682;SDS011;24897;53.514;10.482;2023-08-01T14:01:05;20.17;;;18.67;;
23682;SDS011;24897;53.514;10.482;2023-08-01T14:03:50;21.40;;;19.70;;
23682;SDS011;24897;53.514;10.482;2023-08-01T14:06:34;22.20;;;20.47;;
23682;SDS011;24897;53.514;10.482;2023-08-01T14:09:19;30.83;;;27.87;;
23682;SDS011;24897;53.514;10.482;2023-08-01T14:12:03;22.77;;;20.87;;
23682;SDS011;24897;53.514;10.482;2023-08-01T14:14:48;23.73;;;21.73;;
23682;SDS011;24897;53.514;10.482;2023-08-01T14:17:32;24.50;;;22.30;;
23682;SDS011;24897;53.514;10.482;2023-08-01T14:20:16;24.70;;;22.30;;
23682;SDS011;24897;53.514;10.482;2023-08-01T14:23:00;24.10;;;21.93;;
23682;SDS011;24897;53.514;10.482;2023-08-01T14:25:44;24.13;;;22.03;;
23682;SDS011;24897;53.514;10.482;2023-08-01T14:28:29;24.60;;;22.20;;
23682;SDS011;24897;53.514;10.482;2023-08-01T14:31:13;24.93;;;22.53;;
23682;SDS011;24897;53.514;10.482;2023-08-01T14:33:57;25.40;;;22.70;;
23682;SDS011;24897;53.514;10.482;2023-08-01T14:36:41;24.90;;;22.40;;
23682;SDS011;24897;53.514;10.482;2023-08-01T14:39:25;23.80;;;21.43;;
23682;SDS011;24897;53.514;10.482;2023-08-01T14:42:09;20.43;;;18.73;;
23682;SDS011;24897;53.514;10.482;2023-08-01T14:44:53;22.23;;;20.23;;
23682;SDS011;24897;53.514;10.482;2023-08-01T14:47:38;22.60;;;20.40;;
23682;SDS011;24897;53.514;10.482;2023-08-01T14:50:26;38.00;;;35.10;;
23682;SDS011;24897;53.514;10.482;2023-08-01T14:53:10;40.37;;;37.17;;
23682;SDS011;24897;53.514;10.482;2023-08-01T14:55:57;42.30;;;38.90;;
23682;SDS011;24897;53.514;10.482;2023-08-01T14:58:43;41.97;;;38.57;;
23682;SDS011;24897;53.514;10.482;2023-08-01T15:01:27;41.93;;;38.47;;
23682;SDS011;24897;53.514;10.482;2023-08-01T15:04:11;39.30;;;35.93;;
23682;SDS011;24897;53.514;10.482;2023-08-01T15:06:55;37.80;;;34.80;;
23682;SDS011;24897;53.514;10.482;2023-08-01T15:09:41;37.03;;;34.13;;
23682;SDS011;24897;53.514;10.482;2023-08-01T15:12:27;36.50;;;33.63;;
23682;SDS011;24897;53.514;10.482;2023-08-01T15:15:10;35.47;;;32.67;;
23682;SDS011;24897;53.514;10.482;2023-08-01T15:17:55;32.00;;;29.50;;
23682;SDS011;24897;53.514;10.482;2023-08-01T15:20:39;31.27;;;28.87;;
23682;SDS011;24897;53.514;10.482;2023-08-01T15:23:24;29.77;;;27.67;;
23682;SDS011;24897;53.514;10.482;2023-08-01T15:26:08;29.43;;;27.03;;
23682;SDS011;24897;53.514;10.482;2023-08-01T15:28:53;29.17;;;27.07;;
23682;SDS011;24897;53.514;10.482;2023-08-01T15:31:37;33.10;;;30.70;;
23682;SDS011;24897;53.514;10.482;2023-08-01T15:34:21;33.40;;;31.00;;
23682;SDS011;24897;53.514;10.482;2023-08-01T15:37:08;34.17;;;31.47;;
23682;SDS011;24897;53.514;10.482;2023-08-01T15:39:53;32.63;;;30.17;;
23682;SDS011;24897;53.514;10.482;2023-08-01T15:42:37;35.07;;;32.17;;
23682;SDS011;24897;53.514;10.482;2023-08-01T15:45:21;36.13;;;33.43;;
23682;SDS011;24897;53.514;10.482;2023-08-01T15:48:06;35.70;;;32.80;;